createdAt,value
2018-07-15T00:00:21.906Z,35.60
2018-07-15T00:01:25.269Z,35.70
2018-07-15T00:02:29.684Z,35.90
2018-07-15T00:03:33.224Z,35.90
2018-07-15T00:04:36.726Z,36.00
2018-07-15T00:05:40.569Z,36.00
2018-07-15T00:06:43.976Z,36.20
2018-07-15T00:07:47.324Z,36.20
2018-07-15T00:08:51.237Z,36.20
2018-07-15T00:09:54.656Z,36.30
2018-07-15T00:12:02.150Z,36.40
2018-07-15T00:13:05.802Z,36.50
2018-07-15T00:14:09.193Z,36.60
2018-07-15T00:15:12.681Z,36.70
2018-07-15T00:16:16.025Z,36.80
2018-07-15T00:17:20.161Z,36.90
2018-07-15T00:18:23.638Z,36.90
2018-07-15T00:19:27.149Z,36.80
2018-07-15T00:20:30.668Z,36.80
2018-07-15T00:21:34.071Z,37.10
2018-07-15T00:22:37.875Z,36.70
2018-07-15T00:23:41.428Z,36.60
2018-07-15T00:25:47.925Z,36.60
2018-07-15T00:26:51.712Z,36.60
2018-07-15T00:27:55.167Z,36.70
2018-07-15T00:28:58.610Z,36.60
2018-07-15T00:30:02.068Z,36.70
2018-07-15T00:31:05.516Z,36.80
2018-07-15T00:32:08.870Z,36.80
2018-07-15T00:33:12.227Z,36.80
2018-07-15T00:34:15.699Z,36.80
2018-07-15T00:36:22.244Z,36.80
2018-07-15T00:37:25.637Z,37.00
2018-07-15T00:38:29.002Z,37.00
2018-07-15T00:39:32.349Z,36.90
2018-07-15T00:40:35.728Z,36.80
2018-07-15T00:41:39.114Z,36.80
2018-07-15T00:42:42.573Z,36.60
2018-07-15T00:43:46.061Z,36.60
2018-07-15T00:44:49.524Z,36.70
2018-07-15T00:45:52.915Z,36.80
2018-07-15T00:46:56.379Z,36.80
2018-07-15T00:47:59.816Z,36.70
2018-07-15T00:49:03.279Z,36.80
2018-07-15T00:50:06.822Z,36.90
2018-07-15T00:51:10.233Z,36.90
2018-07-15T00:52:13.836Z,36.90
2018-07-15T00:53:17.484Z,36.80
2018-07-15T00:54:21.044Z,36.90
2018-07-15T00:55:24.713Z,36.80
2018-07-15T00:56:28.107Z,37.50
2018-07-15T00:57:31.709Z,36.60
2018-07-15T00:58:35.469Z,37.20
2018-07-15T00:59:38.865Z,36.60
2018-07-15T01:00:47.756Z,36.80
2018-07-15T01:01:51.182Z,36.80
2018-07-15T01:02:54.488Z,36.80
2018-07-15T01:03:58.561Z,36.90
2018-07-15T01:05:02.009Z,37.00
2018-07-15T01:06:05.473Z,37.00
2018-07-15T01:07:08.854Z,37.00
2018-07-15T01:08:12.212Z,37.00
2018-07-15T01:09:15.816Z,37.00
2018-07-15T01:10:19.177Z,36.90
2018-07-15T01:11:22.505Z,36.80
2018-07-15T01:12:25.980Z,36.60
2018-07-15T01:13:29.728Z,36.60
2018-07-15T01:14:33.056Z,36.00
2018-07-15T01:15:36.436Z,36.10
2018-07-15T01:16:40.879Z,36.10
2018-07-15T01:17:44.387Z,36.10
2018-07-15T01:18:47.778Z,36.10
2018-07-15T01:19:52.229Z,35.70
2018-07-15T01:20:55.693Z,36.00
2018-07-15T01:21:59.073Z,37.00
2018-07-15T01:23:02.513Z,35.60
2018-07-15T01:24:05.980Z,35.60
2018-07-15T01:25:09.462Z,35.40
2018-07-15T01:26:12.842Z,35.80
2018-07-15T01:27:16.348Z,35.70
2018-07-15T01:28:19.824Z,35.90
2018-07-15T01:30:27.186Z,36.20
2018-07-15T01:31:30.675Z,36.20
2018-07-15T01:32:34.333Z,36.10
2018-07-15T01:33:37.905Z,36.30
2018-07-15T01:34:41.309Z,36.30
2018-07-15T01:35:44.831Z,36.30
2018-07-15T01:36:48.307Z,36.10
2018-07-15T01:37:51.844Z,35.80
2018-07-15T01:38:55.288Z,36.20
2018-07-15T01:39:58.620Z,36.00
2018-07-15T01:41:02.197Z,36.10
2018-07-15T01:42:05.741Z,35.90
2018-07-15T01:43:09.220Z,35.90
2018-07-15T01:46:18.833Z,35.80
2018-07-15T01:47:22.194Z,35.90
2018-07-15T01:48:25.641Z,35.90
2018-07-15T01:49:29.018Z,36.00
2018-07-15T01:50:32.506Z,35.60
2018-07-15T01:51:35.853Z,35.80
2018-07-15T01:52:39.181Z,35.80
2018-07-15T01:53:42.546Z,35.90
2018-07-15T01:54:45.970Z,36.50
2018-07-15T01:55:50.636Z,36.10
2018-07-15T01:56:53.985Z,35.70
2018-07-15T01:57:57.351Z,35.70
2018-07-15T01:59:00.826Z,35.50
2018-07-15T02:00:04.808Z,35.20
2018-07-15T02:01:10.652Z,35.00
2018-07-15T02:02:13.976Z,35.20
2018-07-15T02:03:17.463Z,35.00
2018-07-15T02:04:21.764Z,35.00
2018-07-15T02:05:25.179Z,35.00
2018-07-15T02:06:28.591Z,35.00
2018-07-15T02:07:31.908Z,35.10
2018-07-15T02:08:35.240Z,35.40
2018-07-15T02:09:38.626Z,35.50
2018-07-15T02:10:42.040Z,35.50
2018-07-15T02:11:45.391Z,35.40
2018-07-15T02:12:48.716Z,35.50
2018-07-15T02:13:52.066Z,35.40
2018-07-15T02:14:55.455Z,35.40
2018-07-15T02:15:58.845Z,35.50
2018-07-15T02:17:02.273Z,35.40
2018-07-15T02:18:05.800Z,35.30
2018-07-15T02:19:09.495Z,35.30
2018-07-15T02:20:12.846Z,35.20
2018-07-15T02:21:16.233Z,35.20
2018-07-15T02:22:20.118Z,35.30
2018-07-15T02:23:23.704Z,35.30
2018-07-15T02:24:27.050Z,35.30
2018-07-15T02:25:30.390Z,35.40
2018-07-15T02:26:33.748Z,35.40
2018-07-15T02:27:37.111Z,35.30
2018-07-15T02:28:40.519Z,35.40
2018-07-15T02:29:44.020Z,35.40
2018-07-15T02:30:47.398Z,35.40
2018-07-15T02:32:53.891Z,35.40
2018-07-15T02:33:58.381Z,35.50
2018-07-15T02:35:01.716Z,35.50
2018-07-15T02:36:05.674Z,35.50
2018-07-15T02:37:09.251Z,35.50
2018-07-15T02:38:12.638Z,35.50
2018-07-15T02:39:16.026Z,35.70
2018-07-15T02:40:19.362Z,35.60
2018-07-15T02:41:22.844Z,35.60
2018-07-15T02:42:26.342Z,35.60
2018-07-15T02:43:29.757Z,36.30
2018-07-15T02:44:33.264Z,35.60
2018-07-15T02:45:36.874Z,35.60
2018-07-15T02:46:40.322Z,35.70
2018-07-15T02:47:43.709Z,35.70
2018-07-15T02:48:47.052Z,35.70
2018-07-15T02:49:50.461Z,35.70
2018-07-15T02:50:53.812Z,35.70
2018-07-15T02:51:57.240Z,35.70
2018-07-15T02:53:00.563Z,35.70
2018-07-15T02:54:03.889Z,35.70
2018-07-15T02:55:07.233Z,35.70
2018-07-15T02:56:10.685Z,35.70
2018-07-15T02:57:14.210Z,35.80
2018-07-15T02:58:17.525Z,35.80
2018-07-15T02:59:21.023Z,35.80
2018-07-15T03:00:24.425Z,35.80
2018-07-15T03:01:27.742Z,35.80
2018-07-15T03:02:31.185Z,35.80
2018-07-15T03:03:34.553Z,35.80
2018-07-15T03:04:37.881Z,35.90
2018-07-15T03:05:41.460Z,35.80
2018-07-15T03:06:44.806Z,35.90
2018-07-15T03:07:48.230Z,35.90
2018-07-15T03:08:51.570Z,35.90
2018-07-15T03:09:54.896Z,35.90
2018-07-15T03:10:58.436Z,35.90
2018-07-15T03:12:01.753Z,35.90
2018-07-15T03:13:05.150Z,35.90
2018-07-15T03:14:08.696Z,35.90
2018-07-15T03:15:12.192Z,35.90
2018-07-15T03:16:15.670Z,36.00
2018-07-15T03:17:19.167Z,36.00
2018-07-15T03:18:22.454Z,36.10
2018-07-15T03:19:25.835Z,36.00
2018-07-15T03:20:30.152Z,36.00
2018-07-15T03:21:33.541Z,36.10
2018-07-15T03:22:37.083Z,36.10
2018-07-15T03:23:40.405Z,36.10
2018-07-15T03:24:43.723Z,36.10
2018-07-15T03:25:47.139Z,36.00
2018-07-15T03:26:51.255Z,36.00
2018-07-15T03:27:54.612Z,36.70
2018-07-15T03:28:57.979Z,36.00
2018-07-15T03:30:01.370Z,36.00
2018-07-15T03:31:04.771Z,36.10
2018-07-15T03:32:08.124Z,36.10
2018-07-15T03:33:11.479Z,36.10
2018-07-15T03:34:14.968Z,36.20
2018-07-15T03:36:21.414Z,36.10
2018-07-15T03:37:24.756Z,36.20
2018-07-15T03:38:28.140Z,36.20
2018-07-15T03:39:31.487Z,36.20
2018-07-15T03:40:34.854Z,36.20
2018-07-15T03:41:38.265Z,36.20
2018-07-15T03:42:41.785Z,36.20
2018-07-15T03:43:45.185Z,36.20
2018-07-15T03:44:48.500Z,36.40
2018-07-15T03:45:51.867Z,36.30
2018-07-15T03:46:55.189Z,36.30
2018-07-15T03:47:58.533Z,36.30
2018-07-15T03:49:02.037Z,36.20
2018-07-15T03:50:05.419Z,36.90
2018-07-15T03:51:08.893Z,36.20
2018-07-15T03:52:12.389Z,36.70
2018-07-15T03:53:15.711Z,36.10
2018-07-15T03:54:19.076Z,35.80
2018-07-15T03:55:22.431Z,36.00
2018-07-15T03:56:26.140Z,36.10
2018-07-15T03:57:29.458Z,36.10
2018-07-15T03:58:32.804Z,36.10
2018-07-15T03:59:36.423Z,36.10
2018-07-15T04:00:39.921Z,36.10
2018-07-15T04:01:43.263Z,36.00
2018-07-15T04:02:46.651Z,36.00
2018-07-15T04:03:49.965Z,36.00
2018-07-15T04:04:53.350Z,36.60
2018-07-15T04:05:56.756Z,36.00
2018-07-15T04:07:00.223Z,35.90
2018-07-15T04:08:03.581Z,35.90
2018-07-15T04:09:07.363Z,35.90
2018-07-15T04:10:10.797Z,35.90
2018-07-15T04:11:14.216Z,35.80
2018-07-15T04:12:17.649Z,35.90
2018-07-15T04:13:21.054Z,35.80
2018-07-15T04:14:24.577Z,35.80
2018-07-15T04:15:28.021Z,35.80
2018-07-15T04:16:31.400Z,35.80
2018-07-15T04:17:34.765Z,35.80
2018-07-15T04:18:38.194Z,35.90
2018-07-15T04:19:41.553Z,36.00
2018-07-15T04:20:44.858Z,35.90
2018-07-15T04:21:48.281Z,36.10
2018-07-15T04:22:51.593Z,36.00
2018-07-15T04:23:54.912Z,36.00
2018-07-15T04:24:58.394Z,36.00
2018-07-15T04:26:01.905Z,36.10
2018-07-15T04:27:05.344Z,36.20
2018-07-15T04:28:08.784Z,36.20
2018-07-15T04:29:12.169Z,37.00
2018-07-15T04:30:15.643Z,36.10
2018-07-15T04:31:18.992Z,36.20
2018-07-15T04:32:22.293Z,36.20
2018-07-15T04:33:26.032Z,36.20
2018-07-15T04:34:29.473Z,36.10
2018-07-15T04:35:32.773Z,36.30
2018-07-15T04:36:36.242Z,36.40
2018-07-15T04:38:42.592Z,36.60
2018-07-15T04:39:45.990Z,36.50
2018-07-15T04:40:49.360Z,36.60
2018-07-15T04:41:52.712Z,36.70
2018-07-15T04:42:56.029Z,37.00
2018-07-15T04:43:59.543Z,36.60
2018-07-15T04:45:03.000Z,37.00
2018-07-15T04:46:06.475Z,37.20
2018-07-15T04:47:09.849Z,36.50
2018-07-15T04:48:13.260Z,36.50
2018-07-15T04:49:16.888Z,36.60
2018-07-15T04:50:20.294Z,36.70
2018-07-15T04:51:23.762Z,36.70
2018-07-15T04:52:27.157Z,36.70
2018-07-15T04:53:30.508Z,36.80
2018-07-15T04:54:33.864Z,36.80
2018-07-15T04:55:37.413Z,36.80
2018-07-15T04:56:41.836Z,36.80
2018-07-15T04:57:45.208Z,36.80
2018-07-15T04:58:48.624Z,36.90
2018-07-15T04:59:51.945Z,36.90
2018-07-15T05:00:55.356Z,37.00
2018-07-15T05:01:58.865Z,37.00
2018-07-15T05:03:02.192Z,37.10
2018-07-15T05:04:05.897Z,37.00
2018-07-15T05:05:09.245Z,37.00
2018-07-15T05:06:12.580Z,37.10
2018-07-15T05:07:16.020Z,37.10
2018-07-15T05:08:19.490Z,37.10
2018-07-15T05:09:22.855Z,37.20
2018-07-15T05:10:26.425Z,37.20
2018-07-15T05:11:29.786Z,37.20
2018-07-15T05:12:33.125Z,37.30
2018-07-15T05:13:36.516Z,37.20
2018-07-15T05:14:39.998Z,37.10
2018-07-15T05:15:43.331Z,37.10
2018-07-15T05:16:46.775Z,37.20
2018-07-15T05:17:50.112Z,37.40
2018-07-15T05:18:53.449Z,37.50
2018-07-15T05:19:57.073Z,37.70
2018-07-15T05:21:00.512Z,37.80
2018-07-15T05:22:03.936Z,38.00
2018-07-15T05:23:07.249Z,38.00
2018-07-15T05:24:10.642Z,37.90
2018-07-15T05:25:13.953Z,37.90
2018-07-15T05:26:17.339Z,38.70
2018-07-15T05:27:20.752Z,38.00
2018-07-15T05:28:24.114Z,38.10
2018-07-15T05:29:27.805Z,38.20
2018-07-15T05:30:31.192Z,38.30
2018-07-15T05:31:34.577Z,38.30
2018-07-15T05:32:37.893Z,38.20
2018-07-15T05:33:41.302Z,38.30
2018-07-15T05:34:44.648Z,38.20
2018-07-15T05:35:47.963Z,38.30
2018-07-15T05:36:51.614Z,38.20
2018-07-15T05:37:55.002Z,38.40
2018-07-15T05:38:58.364Z,38.40
2018-07-15T05:40:01.975Z,38.40
2018-07-15T05:41:05.562Z,38.40
2018-07-15T05:42:08.890Z,38.40
2018-07-15T05:43:12.234Z,38.40
2018-07-15T05:44:15.595Z,38.50
2018-07-15T05:45:18.896Z,38.40
2018-07-15T05:46:22.221Z,38.30
2018-07-15T05:47:25.713Z,38.40
2018-07-15T05:48:29.052Z,38.40
2018-07-15T05:49:32.374Z,38.30
2018-07-15T05:50:35.684Z,38.40
2018-07-15T05:51:39.065Z,38.40
2018-07-15T05:52:42.474Z,38.60
2018-07-15T05:53:45.822Z,38.50
2018-07-15T05:54:49.144Z,38.50
2018-07-15T05:55:52.681Z,38.40
2018-07-15T05:56:56.272Z,39.10
2018-07-15T05:57:59.785Z,38.40
2018-07-15T05:59:03.231Z,38.50
2018-07-15T06:00:06.586Z,38.50
2018-07-15T06:02:13.083Z,38.40
2018-07-15T06:03:16.620Z,38.40
2018-07-15T06:04:20.054Z,38.50
2018-07-15T06:05:23.452Z,38.50
2018-07-15T06:06:26.781Z,38.50
2018-07-15T06:07:30.143Z,38.40
2018-07-15T06:08:33.500Z,38.40
2018-07-15T06:09:36.879Z,38.50
2018-07-15T06:10:40.411Z,38.50
2018-07-15T06:11:43.713Z,38.50
2018-07-15T06:12:47.078Z,38.50
2018-07-15T06:13:50.706Z,38.50
2018-07-15T06:14:54.033Z,38.60
2018-07-15T06:15:57.418Z,38.50
2018-07-15T06:17:00.969Z,38.60
2018-07-15T06:18:04.583Z,38.50
2018-07-15T06:19:08.047Z,38.70
2018-07-15T06:20:11.513Z,38.60
2018-07-15T06:21:14.921Z,38.70
2018-07-15T06:22:18.625Z,38.70
2018-07-15T06:23:22.049Z,38.60
2018-07-15T06:24:25.419Z,39.40
2018-07-15T06:25:28.752Z,38.60
2018-07-15T06:26:32.167Z,38.70
2018-07-15T06:27:35.612Z,38.70
2018-07-15T06:28:38.965Z,38.80
2018-07-15T06:29:42.388Z,38.80
2018-07-15T06:30:45.830Z,38.80
2018-07-15T06:31:49.332Z,38.80
2018-07-15T06:32:52.774Z,38.90
2018-07-15T06:33:56.184Z,38.90
2018-07-15T06:34:59.705Z,39.00
2018-07-15T06:36:03.164Z,38.90
2018-07-15T06:37:07.017Z,39.00
2018-07-15T06:38:10.462Z,38.90
2018-07-15T06:39:13.852Z,39.00
2018-07-15T06:40:17.241Z,39.00
2018-07-15T06:41:20.660Z,39.10
2018-07-15T06:42:24.018Z,39.00
2018-07-15T06:43:27.368Z,39.00
2018-07-15T06:44:30.969Z,39.00
2018-07-15T06:45:34.338Z,38.90
2018-07-15T06:46:37.655Z,39.00
2018-07-15T06:47:40.989Z,38.80
2018-07-15T06:48:44.417Z,38.90
2018-07-15T06:49:47.902Z,38.80
2018-07-15T06:50:51.335Z,38.90
2018-07-15T06:51:54.944Z,38.80
2018-07-15T06:52:58.391Z,38.70
2018-07-15T06:54:01.972Z,38.70
2018-07-15T06:55:05.974Z,38.70
2018-07-15T06:56:09.345Z,38.70
2018-07-15T06:57:12.684Z,38.70
2018-07-15T06:58:16.005Z,38.60
2018-07-15T06:59:19.434Z,38.60
2018-07-15T07:00:22.777Z,38.60
2018-07-15T07:01:26.154Z,38.60
2018-07-15T07:03:32.696Z,38.60
2018-07-15T07:04:36.103Z,38.60
2018-07-15T07:05:39.429Z,38.50
2018-07-15T07:06:42.783Z,38.50
2018-07-15T07:07:46.202Z,38.50
2018-07-15T07:08:50.128Z,38.60
2018-07-15T07:09:53.510Z,38.50
2018-07-15T07:10:56.972Z,38.60
2018-07-15T07:12:00.488Z,38.60
2018-07-15T07:13:04.091Z,38.60
2018-07-15T07:14:07.740Z,38.70
2018-07-15T07:15:11.201Z,38.60
2018-07-15T07:16:14.615Z,38.70
2018-07-15T07:17:18.025Z,38.70
2018-07-15T07:18:21.390Z,38.90
2018-07-15T07:19:24.739Z,38.80
2018-07-15T07:20:28.140Z,38.90
2018-07-15T07:21:31.482Z,38.90
2018-07-15T07:22:35.285Z,39.10
2018-07-15T07:23:38.630Z,39.00
2018-07-15T07:24:42.276Z,39.50
2018-07-15T07:25:45.707Z,39.10
2018-07-15T07:26:49.268Z,39.00
2018-07-15T07:27:52.884Z,39.10
2018-07-15T07:28:56.279Z,38.90
2018-07-15T07:29:59.637Z,39.10
2018-07-15T07:31:03.140Z,39.10
2018-07-15T07:32:06.871Z,39.10
2018-07-15T07:33:10.253Z,39.20
2018-07-15T07:34:13.780Z,39.20
2018-07-15T07:35:17.151Z,39.20
2018-07-15T07:36:20.478Z,39.20
2018-07-15T07:37:23.828Z,39.20
2018-07-15T07:38:27.217Z,39.20
2018-07-15T07:39:30.585Z,39.80
2018-07-15T07:40:34.100Z,39.20
2018-07-15T07:41:37.893Z,39.10
2018-07-15T07:42:41.389Z,39.10
2018-07-15T07:43:44.745Z,39.10
2018-07-15T07:44:48.173Z,39.10
2018-07-15T07:45:51.656Z,39.10
2018-07-15T07:46:55.130Z,39.10
2018-07-15T07:47:58.708Z,39.10
2018-07-15T07:49:02.354Z,39.10
2018-07-15T07:50:05.984Z,39.10
2018-07-15T07:51:09.397Z,39.00
2018-07-15T07:52:12.784Z,39.00
2018-07-15T07:53:16.267Z,39.40
2018-07-15T07:54:19.990Z,39.30
2018-07-15T07:55:23.529Z,39.20
2018-07-15T07:56:26.921Z,39.20
2018-07-15T07:57:30.229Z,39.00
2018-07-15T07:58:33.585Z,39.10
2018-07-15T07:59:37.210Z,38.80
2018-07-15T08:00:40.597Z,39.80
2018-07-15T08:01:44.000Z,39.40
2018-07-15T08:02:47.373Z,39.30
2018-07-15T08:03:50.750Z,39.10
2018-07-15T08:04:54.100Z,39.00
2018-07-15T08:05:57.465Z,38.90
2018-07-15T08:07:00.813Z,38.90
2018-07-15T08:08:04.261Z,38.80
2018-07-15T08:09:07.804Z,38.70
2018-07-15T08:10:11.270Z,38.80
2018-07-15T08:11:14.731Z,38.70
2018-07-15T08:12:18.089Z,38.90
2018-07-15T08:13:21.674Z,38.90
2018-07-15T08:14:25.255Z,38.90
2018-07-15T08:15:28.938Z,38.90
2018-07-15T08:16:32.393Z,39.20
2018-07-15T08:17:35.762Z,39.00
2018-07-15T08:18:39.164Z,39.00
2018-07-15T08:19:42.586Z,39.00
2018-07-15T08:20:46.040Z,38.90
2018-07-15T08:21:49.433Z,38.90
2018-07-15T08:22:53.134Z,38.90
2018-07-15T08:23:56.609Z,38.90
2018-07-15T08:25:00.019Z,38.90
2018-07-15T08:26:03.463Z,39.10
2018-07-15T08:28:10.110Z,39.10
2018-07-15T08:30:27.953Z,38.50
2018-07-15T08:31:31.405Z,38.70
2018-07-15T08:32:35.231Z,38.50
2018-07-15T08:33:38.617Z,38.50
2018-07-15T08:34:43.480Z,38.50
2018-07-15T08:35:47.038Z,38.60
2018-07-15T08:37:54.252Z,38.70
2018-07-15T08:38:57.794Z,38.60
2018-07-15T08:40:01.218Z,38.40
2018-07-15T08:41:04.693Z,38.30
2018-07-15T08:42:08.180Z,38.40
2018-07-15T08:43:11.741Z,38.50
2018-07-15T08:44:15.132Z,38.40
2018-07-15T08:45:18.518Z,38.50
2018-07-15T08:46:21.936Z,38.60
2018-07-15T08:47:25.458Z,38.50
2018-07-15T08:48:28.847Z,38.40
2018-07-15T08:49:32.307Z,38.30
2018-07-15T08:50:35.856Z,38.50
2018-07-15T08:51:39.379Z,38.50
2018-07-15T08:52:42.777Z,38.60
2018-07-15T08:53:46.292Z,38.50
2018-07-15T08:54:49.710Z,38.60
2018-07-15T08:55:53.561Z,38.60
2018-07-15T08:56:56.906Z,38.60
2018-07-15T08:58:00.696Z,38.60
2018-07-15T08:59:04.017Z,38.50
2018-07-15T09:00:07.666Z,38.50
2018-07-15T09:01:11.093Z,38.50
2018-07-15T09:02:14.502Z,38.40
2018-07-15T09:03:17.894Z,38.50
2018-07-15T09:04:21.362Z,38.50
2018-07-15T09:05:24.713Z,38.60
2018-07-15T09:07:31.334Z,38.50
2018-07-15T09:08:34.705Z,38.50
2018-07-15T09:09:38.120Z,38.60
2018-07-15T09:10:41.632Z,38.40
2018-07-15T09:11:45.025Z,38.40
2018-07-15T09:12:48.583Z,37.90
2018-07-15T09:13:52.021Z,38.50
2018-07-15T09:14:55.433Z,38.40
2018-07-15T09:15:58.824Z,38.50
2018-07-15T09:17:02.187Z,38.40
2018-07-15T09:18:05.592Z,38.40
2018-07-15T09:19:09.025Z,38.60
2018-07-15T09:20:12.797Z,38.90
2018-07-15T09:21:16.843Z,38.70
2018-07-15T09:22:20.281Z,38.70
2018-07-15T09:23:23.679Z,38.70
2018-07-15T09:24:27.081Z,38.60
2018-07-15T09:25:30.425Z,38.70
2018-07-15T09:26:33.894Z,38.80
2018-07-15T09:27:37.328Z,38.70
2018-07-15T09:28:40.705Z,38.90
2018-07-15T09:29:44.144Z,38.90
2018-07-15T09:30:47.874Z,38.90
2018-07-15T09:31:51.555Z,38.90
2018-07-15T09:32:55.041Z,39.30
2018-07-15T09:33:58.400Z,39.20
2018-07-15T09:35:01.936Z,39.10
2018-07-15T09:36:05.420Z,39.20
2018-07-15T09:37:08.812Z,39.30
2018-07-15T09:38:12.237Z,39.20
2018-07-15T09:39:15.874Z,39.00
2018-07-15T09:40:19.259Z,39.00
2018-07-15T09:41:22.797Z,39.00
2018-07-15T09:42:26.285Z,39.20
2018-07-15T09:44:35.166Z,39.00
2018-07-15T09:45:38.648Z,38.90
2018-07-15T09:46:42.245Z,39.00
2018-07-15T09:47:45.954Z,39.00
2018-07-15T09:48:49.636Z,39.10
2018-07-15T09:49:53.125Z,39.10
2018-07-15T09:50:56.552Z,39.10
2018-07-15T09:51:59.928Z,38.80
2018-07-15T09:53:03.262Z,38.90
2018-07-15T09:54:06.713Z,38.60
2018-07-15T09:55:10.632Z,38.50
2018-07-15T09:57:23.856Z,38.40
2018-07-15T09:58:27.257Z,38.50
2018-07-15T09:59:30.856Z,38.50
2018-07-15T10:00:39.658Z,38.60
2018-07-15T10:01:42.997Z,38.60
2018-07-15T10:02:46.542Z,38.70
2018-07-15T10:03:50.208Z,38.80
2018-07-15T10:04:53.675Z,37.80
2018-07-15T10:05:57.147Z,37.60
2018-07-15T10:07:00.545Z,37.80
2018-07-15T10:09:07.457Z,37.20
2018-07-15T10:10:10.964Z,37.20
2018-07-15T10:11:14.385Z,37.20
2018-07-15T10:12:17.769Z,37.60
2018-07-15T10:13:21.232Z,37.50
2018-07-15T10:14:24.804Z,37.60
2018-07-15T10:15:28.249Z,37.70
2018-07-15T10:16:31.967Z,37.90
2018-07-15T10:17:35.369Z,37.80
2018-07-15T10:18:38.763Z,37.70
2018-07-15T10:19:42.976Z,37.50
2018-07-15T10:20:46.758Z,37.30
2018-07-15T10:21:50.110Z,37.00
2018-07-15T10:22:53.690Z,36.80
2018-07-15T10:23:57.138Z,36.70
2018-07-15T10:25:00.668Z,36.80
2018-07-15T10:26:04.151Z,36.90
2018-07-15T10:27:07.805Z,37.00
2018-07-15T10:28:11.233Z,37.10
2018-07-15T10:29:14.634Z,37.00
2018-07-15T10:30:18.353Z,37.00
2018-07-15T10:31:21.824Z,36.60
2018-07-15T10:32:25.522Z,37.00
2018-07-15T10:33:28.903Z,36.40
2018-07-15T10:34:32.572Z,36.00
2018-07-15T10:35:36.024Z,36.10
2018-07-15T10:36:39.534Z,36.10
2018-07-15T10:37:42.973Z,35.60
2018-07-15T10:38:46.450Z,35.40
2018-07-15T10:39:50.100Z,35.80
2018-07-15T10:40:53.458Z,36.10
2018-07-15T10:41:57.108Z,36.00
2018-07-15T10:43:00.530Z,35.90
2018-07-15T10:44:03.985Z,35.50
2018-07-15T10:45:07.415Z,35.30
2018-07-15T10:46:10.868Z,35.60
2018-07-15T10:47:14.303Z,35.30
2018-07-15T10:48:17.657Z,35.30
2018-07-15T10:49:21.063Z,35.20
2018-07-15T10:50:24.644Z,35.10
2018-07-15T10:51:27.977Z,35.00
2018-07-15T10:52:31.337Z,35.30
2018-07-15T10:53:35.000Z,35.60
2018-07-15T10:54:38.355Z,35.70
2018-07-15T10:55:41.895Z,35.70
2018-07-15T10:56:45.472Z,35.50
2018-07-15T10:57:48.868Z,35.50
2018-07-15T10:58:52.661Z,35.40
2018-07-15T10:59:56.145Z,35.20
2018-07-15T11:00:59.562Z,35.10
2018-07-15T11:02:03.029Z,35.30
2018-07-15T11:03:06.401Z,35.30
2018-07-15T11:04:09.809Z,35.40
2018-07-15T11:05:13.401Z,35.40
2018-07-15T11:06:16.975Z,35.40
2018-07-15T11:07:20.461Z,35.30
2018-07-15T11:08:23.935Z,35.40
2018-07-15T11:09:27.387Z,35.40
2018-07-15T11:10:31.013Z,35.20
2018-07-15T11:11:34.528Z,35.10
2018-07-15T11:12:37.946Z,34.90
2018-07-15T11:14:46.312Z,35.30
2018-07-15T11:15:49.820Z,35.10
2018-07-15T11:16:53.219Z,35.20
2018-07-15T11:17:56.763Z,35.00
2018-07-15T11:19:00.153Z,35.40
2018-07-15T11:20:03.731Z,35.00
2018-07-15T11:21:07.148Z,34.90
2018-07-15T11:22:10.548Z,35.10
2018-07-15T11:23:14.177Z,35.40
2018-07-15T11:25:21.130Z,35.60
2018-07-15T11:26:24.572Z,35.10
2018-07-15T11:27:27.965Z,35.60
2018-07-15T11:28:31.577Z,35.90
2018-07-15T11:29:34.986Z,36.20
2018-07-15T11:30:38.423Z,36.10
2018-07-15T11:31:41.882Z,35.70
2018-07-15T11:32:45.420Z,36.20
2018-07-15T11:33:49.166Z,35.90
2018-07-15T11:34:52.554Z,36.20
2018-07-15T11:35:55.902Z,34.60
2018-07-15T11:36:59.356Z,35.00
2018-07-15T11:38:02.723Z,34.60
2018-07-15T11:39:07.408Z,34.90
2018-07-15T11:40:10.937Z,34.40
2018-07-15T11:41:14.316Z,34.20
2018-07-15T11:42:17.653Z,34.50
2018-07-15T11:43:21.043Z,35.00
2018-07-15T11:44:24.403Z,35.60
2018-07-15T11:45:27.865Z,34.90
2018-07-15T11:46:31.316Z,34.70
2018-07-15T11:47:34.700Z,34.50
2018-07-15T11:49:41.145Z,34.80
2018-07-15T11:50:44.489Z,35.00
2018-07-15T11:51:47.877Z,34.70
2018-07-15T11:52:51.225Z,34.40
2018-07-15T11:53:54.847Z,34.30
2018-07-15T11:54:58.307Z,34.40
2018-07-15T11:56:01.923Z,34.10
2018-07-15T11:57:05.412Z,33.70
2018-07-15T11:58:08.804Z,33.60
2018-07-15T11:59:12.271Z,33.40
2018-07-15T12:00:15.654Z,33.20
2018-07-15T12:01:19.237Z,33.50
2018-07-15T12:02:22.796Z,33.30
2018-07-15T12:03:26.450Z,33.20
2018-07-15T12:05:32.967Z,33.70
2018-07-15T12:06:37.095Z,33.00
2018-07-15T12:07:40.505Z,33.20
2018-07-15T12:08:44.593Z,33.20
2018-07-15T12:09:48.124Z,33.20
2018-07-15T12:10:51.793Z,33.10
2018-07-15T12:11:55.839Z,32.90
2018-07-15T12:12:59.570Z,33.00
2018-07-15T12:14:03.341Z,33.00
2018-07-15T12:15:06.865Z,33.00
2018-07-15T12:16:10.385Z,32.90
2018-07-15T12:17:13.718Z,32.80
2018-07-15T12:18:17.308Z,32.50
2018-07-15T12:19:20.666Z,32.50
2018-07-15T12:20:24.109Z,32.70
2018-07-15T12:21:27.769Z,32.80
2018-07-15T12:22:31.173Z,32.90
2018-07-15T12:23:34.556Z,32.70
2018-07-15T12:24:38.050Z,32.80
2018-07-15T12:25:41.745Z,32.90
2018-07-15T12:26:45.392Z,32.70
2018-07-15T12:27:48.833Z,32.30
2018-07-15T12:28:52.312Z,32.90
2018-07-15T12:29:55.785Z,32.30
2018-07-15T12:30:59.253Z,32.40
2018-07-15T12:32:02.750Z,32.40
2018-07-15T12:33:06.170Z,32.60
2018-07-15T12:34:09.533Z,32.60
2018-07-15T12:35:13.048Z,32.60
2018-07-15T12:36:16.601Z,32.50
2018-07-15T12:37:20.145Z,32.40
2018-07-15T12:38:23.826Z,32.60
2018-07-15T12:39:27.296Z,32.30
2018-07-15T12:40:30.712Z,32.10
2018-07-15T12:41:34.079Z,32.20
2018-07-15T12:42:37.421Z,32.00
2018-07-15T12:43:40.920Z,31.90
2018-07-15T12:44:44.301Z,31.80
2018-07-15T12:45:47.692Z,31.60
2018-07-15T12:46:51.318Z,31.70
2018-07-15T12:47:54.823Z,31.80
2018-07-15T12:48:58.224Z,31.70
2018-07-15T12:50:01.633Z,31.30
2018-07-15T12:52:09.936Z,31.50
2018-07-15T12:53:13.545Z,31.60
2018-07-15T12:54:16.989Z,31.50
2018-07-15T12:55:20.358Z,31.70
2018-07-15T12:56:23.717Z,31.90
2018-07-15T12:57:27.084Z,31.50
2018-07-15T12:58:30.845Z,31.50
2018-07-15T13:00:37.534Z,31.30
2018-07-15T13:01:40.908Z,31.40
2018-07-15T13:02:44.398Z,31.20
2018-07-15T13:03:47.818Z,31.30
2018-07-15T13:04:51.257Z,31.20
2018-07-15T13:05:55.358Z,31.10
2018-07-15T13:06:58.885Z,31.10
2018-07-15T13:08:02.400Z,31.20
2018-07-15T13:09:06.812Z,31.30
2018-07-15T13:10:10.335Z,31.40
2018-07-15T13:11:13.934Z,31.30
2018-07-15T13:12:17.313Z,30.80
2018-07-15T13:13:20.859Z,31.10
2018-07-15T13:14:24.277Z,31.00
2018-07-15T13:15:27.737Z,30.60
2018-07-15T13:16:32.243Z,30.70
2018-07-15T13:17:35.660Z,30.90
2018-07-15T13:18:39.100Z,30.50
2018-07-15T13:19:42.627Z,31.80
2018-07-15T13:20:46.151Z,31.20
2018-07-15T13:21:49.685Z,31.50
2018-07-15T13:22:53.222Z,31.30
2018-07-15T13:23:57.112Z,31.50
2018-07-15T13:25:00.521Z,31.60
2018-07-15T13:26:03.966Z,31.70
2018-07-15T13:27:07.354Z,31.90
2018-07-15T13:28:10.962Z,31.50
2018-07-15T13:29:14.364Z,31.30
2018-07-15T13:30:17.824Z,31.10
2018-07-15T13:31:21.176Z,31.00
2018-07-15T13:32:24.685Z,31.00
2018-07-15T13:33:28.103Z,31.00
2018-07-15T13:34:31.668Z,31.00
2018-07-15T13:35:35.119Z,31.00
2018-07-15T13:36:38.548Z,31.80
2018-07-15T13:37:41.972Z,31.30
2018-07-15T13:38:45.615Z,31.10
2018-07-15T13:39:48.977Z,31.40
2018-07-15T13:40:52.500Z,31.10
2018-07-15T13:41:55.960Z,31.20
2018-07-15T13:42:59.442Z,31.00
2018-07-15T13:44:02.811Z,31.20
2018-07-15T13:45:06.184Z,31.40
2018-07-15T13:46:09.670Z,31.60
2018-07-15T13:47:13.166Z,31.80
2018-07-15T13:48:16.609Z,32.00
2018-07-15T13:49:20.108Z,32.10
2018-07-15T13:50:23.650Z,32.00
2018-07-15T13:51:27.107Z,32.30
2018-07-15T13:52:30.675Z,32.20
2018-07-15T13:53:34.024Z,32.10
2018-07-15T13:55:40.578Z,31.80
2018-07-15T13:56:43.977Z,31.90
2018-07-15T13:57:47.657Z,31.90
2018-07-15T13:59:54.318Z,31.70
2018-07-15T14:00:57.795Z,31.40
2018-07-15T14:02:01.399Z,31.50
2018-07-15T14:03:05.027Z,31.70
2018-07-15T14:04:08.460Z,31.40
2018-07-15T14:05:12.137Z,31.60